sensor_id;sensor_type;location;lat;lon;timestamp;pressure;altitude;pressure_sealevel;temperature;humidity
22753;BME280;11543;43.144;24.684;2023-04-09T00:02:17;99226.88;;;10.90;73.70
22753;BME280;11543;43.144;24.684;2023-04-09T00:04:43;99218.69;;;10.81;73.76
22753;BME280;11543;43.144;24.684;2023-04-09T00:07:08;99227.16;;;10.87;73.80
22753;BME280;11543;43.144;24.684;2023-04-09T00:09:34;99211.91;;;10.87;73.68
22753;BME280;11543;43.144;24.684;2023-04-09T00:12:00;99205.69;;;10.87;73.38
22753;BME280;11543;43.144;24.684;2023-04-09T00:14:26;99204.00;;;10.85;73.67
22753;BME280;11543;43.144;24.684;2023-04-09T00:16:52;99225.13;;;10.98;73.27
22753;BME280;11543;43.144;24.684;2023-04-09T00:19:17;99217.22;;;10.97;73.26
22753;BME280;11543;43.144;24.684;2023-04-09T00:21:43;99197.78;;;10.85;73.08
22753;BME280;11543;43.144;24.684;2023-04-09T00:24:08;99225.72;;;10.92;72.78
22753;BME280;11543;43.144;24.684;2023-04-09T00:26:34;99229.00;;;10.86;73.15
22753;BME280;11543;43.144;24.684;2023-04-09T00:29:00;99228.75;;;10.79;73.47
22753;BME280;11543;43.144;24.684;2023-04-09T00:31:26;99224.66;;;10.75;73.61
22753;BME280;11543;43.144;24.684;2023-04-09T00:33:51;99219.88;;;10.69;73.63
22753;BME280;11543;43.144;24.684;2023-04-09T00:36:17;99232.00;;;10.73;73.46
22753;BME280;11543;43.144;24.684;2023-04-09T00:38:43;99236.78;;;10.79;73.74
22753;BME280;11543;43.144;24.684;2023-04-09T00:41:08;99236.78;;;10.79;73.86
22753;BME280;11543;43.144;24.684;2023-04-09T00:43:34;99220.97;;;10.76;73.64
22753;BME280;11543;43.144;24.684;2023-04-09T00:46:00;99218.59;;;10.73;73.48
22753;BME280;11543;43.144;24.684;2023-04-09T00:48:26;99214.63;;;10.77;73.53
22753;BME280;11543;43.144;24.684;2023-04-09T00:50:52;99214.91;;;10.74;73.55
22753;BME280;11543;43.144;24.684;2023-04-09T00:53:21;99215.63;;;10.76;73.49
22753;BME280;11543;43.144;24.684;2023-04-09T00:55:47;99214.63;;;10.77;73.36
22753;BME280;11543;43.144;24.684;2023-04-09T00:58:13;99228.56;;;10.91;73.14
22753;BME280;11543;43.144;24.684;2023-04-09T01:00:39;99211.34;;;10.83;73.01
22753;BME280;11543;43.144;24.684;2023-04-09T01:03:05;99211.34;;;10.83;72.75
22753;BME280;11543;43.144;24.684;2023-04-09T01:05:59;99209.75;;;10.91;72.52
22753;BME280;11543;43.144;24.684;2023-04-09T01:09:02;99219.81;;;10.89;72.42
22753;BME280;11543;43.144;24.684;2023-04-09T01:14:47;99215.88;;;10.83;72.49
22753;BME280;11543;43.144;24.684;2023-04-09T01:17:29;99225.47;;;10.85;72.41
22753;BME280;11543;43.144;24.684;2023-04-09T01:20:08;99225.75;;;10.82;72.46
22753;BME280;11543;43.144;24.684;2023-04-09T01:28:48;99219.59;;;10.72;72.24
22753;BME280;11543;43.144;24.684;2023-04-09T01:31:17;99218.19;;;10.68;72.22
22753;BME280;11543;43.144;24.684;2023-04-09T01:33:44;99210.56;;;10.64;72.23
22753;BME280;11543;43.144;24.684;2023-04-09T01:36:13;99210.84;;;10.70;72.00
22753;BME280;11543;43.144;24.684;2023-04-09T01:38:41;99225.66;;;10.74;72.00
22753;BME280;11543;43.144;24.684;2023-04-09T01:41:17;99195.91;;;10.58;71.91
22753;BME280;11543;43.144;24.684;2023-04-09T01:44:09;99217.34;;;10.68;72.15
22753;BME280;11543;43.144;24.684;2023-04-09T01:57:31;99236.00;;;10.60;72.09
22753;BME280;11543;43.144;24.684;2023-04-09T01:59:57;99228.91;;;10.68;71.72
22753;BME280;11543;43.144;24.684;2023-04-09T02:02:29;99204.44;;;10.44;71.45
22753;BME280;11543;43.144;24.684;2023-04-09T02:08:19;99202.75;;;10.24;72.26
22753;BME280;11543;43.144;24.684;2023-04-09T02:10:50;99204.72;;;10.21;72.71
22753;BME280;11543;43.144;24.684;2023-04-09T02:13:21;99201.31;;;10.19;72.27
22753;BME280;11543;43.144;24.684;2023-04-09T02:15:48;99221.66;;;10.32;72.77
22753;BME280;11543;43.144;24.684;2023-04-09T02:18:22;99231.09;;;10.36;72.71
22753;BME280;11543;43.144;24.684;2023-04-09T02:20:48;99217.97;;;10.33;72.68
22753;BME280;11543;43.144;24.684;2023-04-09T02:23:16;99216.00;;;10.35;72.35
22753;BME280;11543;43.144;24.684;2023-04-09T02:25:43;99229.56;;;10.43;72.34
22753;BME280;11543;43.144;24.684;2023-04-09T02:28:08;99226.03;;;10.42;72.19
22753;BME280;11543;43.144;24.684;2023-04-09T02:30:50;99230.69;;;10.50;72.07
22753;BME280;11543;43.144;24.684;2023-04-09T02:33:23;99225.19;;;10.42;72.11
22753;BME280;11543;43.144;24.684;2023-04-09T02:35:56;99219.22;;;10.38;71.85
22753;BME280;11543;43.144;24.684;2023-04-09T02:38:21;99217.41;;;10.39;72.01
22753;BME280;11543;43.144;24.684;2023-04-09T02:41:13;99221.50;;;10.43;71.83
22753;BME280;11543;43.144;24.684;2023-04-09T02:44:08;99219.97;;;10.40;71.86
22753;BME280;11543;43.144;24.684;2023-04-09T02:46:54;99221.66;;;10.41;71.88
22753;BME280;11543;43.144;24.684;2023-04-09T02:49:58;99228.69;;;10.52;72.12
22753;BME280;11543;43.144;24.684;2023-04-09T02:52:33;99236.03;;;10.50;71.71
22753;BME280;11543;43.144;24.684;2023-04-09T03:06:20;99240.53;;;10.59;72.13
22753;BME280;11543;43.144;24.684;2023-04-09T03:09:14;99223.31;;;10.52;72.18
22753;BME280;11543;43.144;24.684;2023-04-09T03:11:48;99223.03;;;10.55;72.21
22753;BME280;11543;43.144;24.684;2023-04-09T03:14:16;99228.81;;;10.60;71.97
22753;BME280;11543;43.144;24.684;2023-04-09T03:16:44;99209.91;;;10.52;71.84
22753;BME280;11543;43.144;24.684;2023-04-09T03:19:09;99215.97;;;10.54;71.88
22753;BME280;11543;43.144;24.684;2023-04-09T03:21:35;99223.03;;;10.55;72.03
22753;BME280;11543;43.144;24.684;2023-04-09T03:24:01;99247.16;;;10.65;72.12
22753;BME280;11543;43.144;24.684;2023-04-09T03:26:26;99223.72;;;10.57;71.97
22753;BME280;11543;43.144;24.684;2023-04-09T03:28:52;99239.94;;;10.65;71.77
22753;BME280;11543;43.144;24.684;2023-04-09T03:31:17;99241.63;;;10.66;71.82
22753;BME280;11543;43.144;24.684;2023-04-09T03:33:43;99236.56;;;10.63;71.95
22753;BME280;11543;43.144;24.684;2023-04-09T03:36:09;99236.56;;;10.63;71.57
22753;BME280;11543;43.144;24.684;2023-04-09T03:38:34;99229.50;;;10.62;71.87
22753;BME280;11543;43.144;24.684;2023-04-09T03:41:00;99231.50;;;10.60;71.97
22753;BME280;11543;43.144;24.684;2023-04-09T03:43:25;99245.88;;;10.69;71.67
22753;BME280;11543;43.144;24.684;2023-04-09T03:45:51;99247.00;;;10.66;71.71
22753;BME280;11543;43.144;24.684;2023-04-09T03:48:17;99227.53;;;10.64;71.76
22753;BME280;11543;43.144;24.684;2023-04-09T03:50:42;99228.09;;;10.58;72.16
22753;BME280;11543;43.144;24.684;2023-04-09T03:53:08;99228.38;;;10.65;72.26
22753;BME280;11543;43.144;24.684;2023-04-09T03:55:36;99239.38;;;10.71;72.25
22753;BME280;11543;43.144;24.684;2023-04-09T04:01:48;99236.19;;;10.48;72.67
22753;BME280;11543;43.144;24.684;2023-04-09T04:14:48;99234.31;;;10.59;73.04
22753;BME280;11543;43.144;24.684;2023-04-09T04:17:13;99267.91;;;10.72;73.00
22753;BME280;11543;43.144;24.684;2023-04-09T04:19:39;99254.78;;;10.69;72.90
22753;BME280;11543;43.144;24.684;2023-04-09T04:22:05;99255.19;;;10.74;73.18
22753;BME280;11543;43.144;24.684;2023-04-09T05:28:11;99245.28;;;11.39;71.93
22753;BME280;11543;43.144;24.684;2023-04-09T05:30:39;99262.19;;;11.49;71.98
22753;BME280;11543;43.144;24.684;2023-04-09T05:33:10;99258.22;;;11.54;71.84
22753;BME280;11543;43.144;24.684;2023-04-09T05:36:13;99274.50;;;11.70;71.73
22753;BME280;11543;43.144;24.684;2023-04-09T05:38:39;99280.44;;;11.73;71.56
22753;BME280;11543;43.144;24.684;2023-04-09T05:41:05;99276.31;;;11.79;71.51
22753;BME280;11543;43.144;24.684;2023-04-09T05:43:34;99262.03;;;11.78;71.62
22753;BME280;11543;43.144;24.684;2023-04-09T05:46:00;99276.09;;;11.90;71.36
22753;BME280;11543;43.144;24.684;2023-04-09T05:48:28;99261.44;;;11.85;71.27
22753;BME280;11543;43.144;24.684;2023-04-09T05:50:55;99249.53;;;11.87;70.82
22753;BME280;11543;43.144;24.684;2023-04-09T05:53:59;99260.72;;;12.00;70.72
22753;BME280;11543;43.144;24.684;2023-04-09T05:56:25;99256.19;;;12.01;70.60
22753;BME280;11543;43.144;24.684;2023-04-09T05:58:57;99267.72;;;12.11;70.45
22753;BME280;11543;43.144;24.684;2023-04-09T06:01:23;99271.38;;;12.20;70.36
22753;BME280;11543;43.144;24.684;2023-04-09T06:03:49;99256.13;;;12.10;70.14
22753;BME280;11543;43.144;24.684;2023-04-09T06:06:18;99279.66;;;12.26;70.13
22753;BME280;11543;43.144;24.684;2023-04-09T06:08:44;99255.53;;;12.17;70.14
22753;BME280;11543;43.144;24.684;2023-04-09T06:11:10;99272.13;;;12.30;70.05
22753;BME280;11543;43.144;24.684;2023-04-09T06:13:36;99263.34;;;12.28;69.97
22753;BME280;11543;43.144;24.684;2023-04-09T06:16:06;99267.97;;;12.35;69.85
22753;BME280;11543;43.144;24.684;2023-04-09T06:18:33;99256.81;;;12.30;69.61
22753;BME280;11543;43.144;24.684;2023-04-09T06:21:08;99266.13;;;12.36;69.65
22753;BME280;11543;43.144;24.684;2023-04-09T06:30:26;99280.00;;;12.49;69.52
22753;BME280;11543;43.144;24.684;2023-04-09T06:33:13;99259.56;;;12.38;69.51
22753;BME280;11543;43.144;24.684;2023-04-09T06:36:14;99279.53;;;12.54;69.61
22753;BME280;11543;43.144;24.684;2023-04-09T06:38:39;99279.53;;;12.54;69.73
22753;BME280;11543;43.144;24.684;2023-04-09T06:41:05;99286.13;;;12.59;69.38
22753;BME280;11543;43.144;24.684;2023-04-09T06:43:33;99267.91;;;12.53;69.53
22753;BME280;11543;43.144;24.684;2023-04-09T06:46:13;99278.59;;;12.63;69.34
22753;BME280;11543;43.144;24.684;2023-04-09T06:51:20;99274.78;;;12.73;69.56
22753;BME280;11543;43.144;24.684;2023-04-09T06:53:52;99284.66;;;12.91;69.41
22753;BME280;11543;43.144;24.684;2023-04-09T06:56:23;99287.41;;;12.99;69.51
22753;BME280;11543;43.144;24.684;2023-04-09T06:58:48;99275.63;;;13.00;69.55
22753;BME280;11543;43.144;24.684;2023-04-09T07:01:16;99290.94;;;13.17;69.49
22753;BME280;11543;43.144;24.684;2023-04-09T07:03:45;99288.63;;;13.30;69.47
22753;BME280;11543;43.144;24.684;2023-04-09T07:06:11;99271.78;;;13.28;69.06
22753;BME280;11543;43.144;24.684;2023-04-09T07:08:37;99275.53;;;13.44;68.71
22753;BME280;11543;43.144;24.684;2023-04-09T07:11:10;99279.97;;;13.53;68.42
22753;BME280;11543;43.144;24.684;2023-04-09T07:13:35;99282.72;;;13.69;67.95
22753;BME280;11543;43.144;24.684;2023-04-09T07:16:01;99268.53;;;13.67;67.82
22753;BME280;11543;43.144;24.684;2023-04-09T07:18:27;99278.00;;;13.79;67.53
22753;BME280;11543;43.144;24.684;2023-04-09T07:20:52;99270.59;;;13.81;67.21
22753;BME280;11543;43.144;24.684;2023-04-09T07:23:28;99276.72;;;13.91;67.08
22753;BME280;11543;43.144;24.684;2023-04-09T07:26:07;99292.94;;;14.08;66.67
22753;BME280;11543;43.144;24.684;2023-04-09T07:29:00;99262.25;;;14.09;66.29
22753;BME280;11543;43.144;24.684;2023-04-09T07:31:34;99284.00;;;14.31;65.79
22753;BME280;11543;43.144;24.684;2023-04-09T07:34:05;99270.00;;;14.28;65.63
22753;BME280;11543;43.144;24.684;2023-04-09T07:36:31;99271.06;;;14.43;64.99
22753;BME280;11543;43.144;24.684;2023-04-09T07:38:57;99294.50;;;14.67;64.87
22753;BME280;11543;43.144;24.684;2023-04-09T07:41:24;99280.47;;;14.63;64.03
22753;BME280;11543;43.144;24.684;2023-04-09T07:43:52;99279.13;;;14.68;63.95
22753;BME280;11543;43.144;24.684;2023-04-09T07:46:20;99286.06;;;14.86;63.31
22753;BME280;11543;43.144;24.684;2023-04-09T07:48:51;99286.38;;;15.00;63.12
22753;BME280;11543;43.144;24.684;2023-04-09T07:51:16;99289.38;;;15.13;62.95
22753;BME280;11543;43.144;24.684;2023-04-09T07:53:42;99291.53;;;15.25;63.16
22753;BME280;11543;43.144;24.684;2023-04-09T07:56:10;99293.19;;;15.35;62.60
22753;BME280;11543;43.144;24.684;2023-04-09T07:58:36;99283.69;;;15.39;61.88
22753;BME280;11543;43.144;24.684;2023-04-09T08:01:05;99289.25;;;15.62;61.42
22753;BME280;11543;43.144;24.684;2023-04-09T08:03:33;99291.38;;;15.74;60.96
22753;BME280;11543;43.144;24.684;2023-04-09T08:06:35;99301.03;;;16.00;60.60
22753;BME280;11543;43.144;24.684;2023-04-09T08:09:05;99301.69;;;16.02;60.52
22753;BME280;11543;43.144;24.684;2023-04-09T08:11:32;99301.81;;;16.08;59.57
22753;BME280;11543;43.144;24.684;2023-04-09T08:14:46;99289.06;;;16.17;59.00
22753;BME280;11543;43.144;24.684;2023-04-09T08:17:32;99279.88;;;16.03;56.96
22753;BME280;11543;43.144;24.684;2023-04-09T08:20:13;99275.19;;;16.20;57.79
22753;BME280;11543;43.144;24.684;2023-04-09T08:22:41;99288.94;;;16.33;57.83
22753;BME280;11543;43.144;24.684;2023-04-09T08:25:27;99299.63;;;16.58;58.02
22753;BME280;11543;43.144;24.684;2023-04-09T08:27:53;99296.16;;;16.86;55.90
22753;BME280;11543;43.144;24.684;2023-04-09T08:30:18;99295.91;;;16.96;56.43
22753;BME280;11543;43.144;24.684;2023-04-09T08:32:46;99270.75;;;17.02;55.49
22753;BME280;11543;43.144;24.684;2023-04-09T08:35:11;99272.44;;;17.18;55.92
22753;BME280;11543;43.144;24.684;2023-04-09T08:37:37;99274.81;;;17.36;54.35
22753;BME280;11543;43.144;24.684;2023-04-09T08:40:04;99275.75;;;17.43;54.24
22753;BME280;11543;43.144;24.684;2023-04-09T08:42:30;99272.53;;;17.54;52.67
22753;BME280;11543;43.144;24.684;2023-04-09T08:44:56;99280.50;;;17.56;52.82
22753;BME280;11543;43.144;24.684;2023-04-09T08:47:22;99284.16;;;17.48;52.41
22753;BME280;11543;43.144;24.684;2023-04-09T08:49:49;99275.34;;;17.16;52.98
22753;BME280;11543;43.144;24.684;2023-04-09T08:52:15;99279.72;;;17.17;53.76
22753;BME280;11543;43.144;24.684;2023-04-09T08:54:41;99275.63;;;17.07;53.65
22753;BME280;11543;43.144;24.684;2023-04-09T08:57:07;99273.28;;;17.18;52.51
22753;BME280;11543;43.144;24.684;2023-04-09T08:59:33;99276.19;;;17.17;52.85
22753;BME280;11543;43.144;24.684;2023-04-09T09:02:11;99277.22;;;17.31;52.83
22753;BME280;11543;43.144;24.684;2023-04-09T09:04:46;99275.75;;;17.43;52.01
22753;BME280;11543;43.144;24.684;2023-04-09T09:07:13;99282.84;;;17.44;51.86
22753;BME280;11543;43.144;24.684;2023-04-09T09:12:37;99268.34;;;17.51;51.08
22753;BME280;11543;43.144;24.684;2023-04-09T09:15:05;99267.31;;;17.38;50.01
22753;BME280;11543;43.144;24.684;2023-04-09T09:17:57;99276.09;;;17.69;50.91
22753;BME280;11543;43.144;24.684;2023-04-09T09:20:24;99274.38;;;17.83;50.74
22753;BME280;11543;43.144;24.684;2023-04-09T09:22:53;99261.03;;;18.03;50.75
22753;BME280;11543;43.144;24.684;2023-04-09T09:25:18;99265.84;;;18.22;50.74
22753;BME280;11543;43.144;24.684;2023-04-09T09:27:49;99256.00;;;18.42;50.02
22753;BME280;11543;43.144;24.684;2023-04-09T09:30:25;99265.91;;;18.71;48.70
22753;BME280;11543;43.144;24.684;2023-04-09T09:33:05;99264.03;;;18.72;48.54
22753;BME280;11543;43.144;24.684;2023-04-09T09:35:52;99247.91;;;18.70;48.49
22753;BME280;11543;43.144;24.684;2023-04-09T09:38:19;99250.69;;;18.77;48.03
22753;BME280;11543;43.144;24.684;2023-04-09T09:40:45;99250.97;;;18.89;47.79
22753;BME280;11543;43.144;24.684;2023-04-09T09:43:12;99245.09;;;18.85;47.11
22753;BME280;11543;43.144;24.684;2023-04-09T09:45:39;99249.78;;;18.98;47.56
22753;BME280;11543;43.144;24.684;2023-04-09T09:48:06;99237.13;;;19.12;47.00
22753;BME280;11543;43.144;24.684;2023-04-09T09:50:33;99249.75;;;19.26;48.22
22753;BME280;11543;43.144;24.684;2023-04-09T09:53:04;99244.56;;;19.31;46.57
22753;BME280;11543;43.144;24.684;2023-04-09T09:55:31;99240.56;;;19.27;46.99
22753;BME280;11543;43.144;24.684;2023-04-09T09:58:02;99241.53;;;19.13;45.66
22753;BME280;11543;43.144;24.684;2023-04-09T10:00:31;99227.59;;;18.94;46.02
22753;BME280;11543;43.144;24.684;2023-04-09T10:03:07;99234.84;;;18.87;45.86
22753;BME280;11543;43.144;24.684;2023-04-09T10:05:37;99225.72;;;18.67;45.50
22753;BME280;11543;43.144;24.684;2023-04-09T10:08:05;99233.72;;;18.75;46.34
22753;BME280;11543;43.144;24.684;2023-04-09T10:10:32;99242.53;;;18.77;45.77
22753;BME280;11543;43.144;24.684;2023-04-09T10:12:58;99239.81;;;18.56;44.90
22753;BME280;11543;43.144;24.684;2023-04-09T10:15:43;99224.00;;;18.38;45.02
22753;BME280;11543;43.144;24.684;2023-04-09T10:18:09;99236.34;;;18.40;45.35
22753;BME280;11543;43.144;24.684;2023-04-09T10:20:48;99226.38;;;18.48;45.34
22753;BME280;11543;43.144;24.684;2023-04-09T10:23:26;99229.78;;;18.56;44.43
22753;BME280;11543;43.144;24.684;2023-04-09T10:25:55;99232.69;;;18.55;44.37
22753;BME280;11543;43.144;24.684;2023-04-09T10:28:22;99219.72;;;18.50;44.23
22753;BME280;11543;43.144;24.684;2023-04-09T10:30:47;99221.38;;;18.51;44.27
22753;BME280;11543;43.144;24.684;2023-04-09T10:33:15;99230.06;;;18.61;44.44
22753;BME280;11543;43.144;24.684;2023-04-09T10:35:42;99223.59;;;18.62;44.99
22753;BME280;11543;43.144;24.684;2023-04-09T10:38:08;99222.84;;;18.75;43.38
22753;BME280;11543;43.144;24.684;2023-04-09T10:40:48;99212.38;;;18.72;44.04
22753;BME280;11543;43.144;24.684;2023-04-09T10:43:17;99211.81;;;18.83;44.41
22753;BME280;11543;43.144;24.684;2023-04-09T10:45:47;99223.03;;;19.01;43.82
22753;BME280;11543;43.144;24.684;2023-04-09T10:48:18;99225.50;;;18.96;43.16
22753;BME280;11543;43.144;24.684;2023-04-09T10:50:44;99209.19;;;18.96;43.67
22753;BME280;11543;43.144;24.684;2023-04-09T10:53:24;99217.59;;;19.01;44.05
22753;BME280;11543;43.144;24.684;2023-04-09T10:55:51;99211.38;;;19.07;43.84
22753;BME280;11543;43.144;24.684;2023-04-09T10:58:18;99211.44;;;19.21;44.26
22753;BME280;11543;43.144;24.684;2023-04-09T11:00:45;99200.50;;;19.07;43.57
22753;BME280;11543;43.144;24.684;2023-04-09T11:03:25;99203.00;;;19.09;43.33
22753;BME280;11543;43.144;24.684;2023-04-09T11:06:04;99197.50;;;19.02;43.73
22753;BME280;11543;43.144;24.684;2023-04-09T11:08:33;99206.63;;;18.88;44.03
22753;BME280;11543;43.144;24.684;2023-04-09T11:10:59;99197.44;;;18.89;43.55
22753;BME280;11543;43.144;24.684;2023-04-09T11:13:26;99199.28;;;18.82;44.28
22753;BME280;11543;43.144;24.684;2023-04-09T11:15:54;99193.59;;;18.77;44.95
22753;BME280;11543;43.144;24.684;2023-04-09T11:18:22;99192.13;;;18.74;44.69
22753;BME280;11543;43.144;24.684;2023-04-09T11:20:48;99184.56;;;18.70;44.81
22753;BME280;11543;43.144;24.684;2023-04-09T11:23:16;99187.75;;;18.80;45.34
22753;BME280;11543;43.144;24.684;2023-04-09T11:25:42;99183.19;;;18.87;45.35
22753;BME280;11543;43.144;24.684;2023-04-09T11:28:07;99178.81;;;18.86;44.79
22753;BME280;11543;43.144;24.684;2023-04-09T11:30:34;99178.06;;;19.05;44.99
22753;BME280;11543;43.144;24.684;2023-04-09T11:33:00;99166.22;;;19.13;45.41
22753;BME280;11543;43.144;24.684;2023-04-09T11:35:26;99166.84;;;19.15;44.79
22753;BME280;11543;43.144;24.684;2023-04-09T11:37:52;99167.13;;;19.27;44.84
22753;BME280;11543;43.144;24.684;2023-04-09T11:40:23;99170.69;;;19.34;44.42
22753;BME280;11543;43.144;24.684;2023-04-09T11:42:51;99169.25;;;19.38;43.86
22753;BME280;11543;43.144;24.684;2023-04-09T11:45:19;99174.28;;;19.41;42.96
22753;BME280;11543;43.144;24.684;2023-04-09T11:47:45;99166.72;;;19.36;43.52
22753;BME280;11543;43.144;24.684;2023-04-09T11:50:12;99158.97;;;19.33;44.31
22753;BME280;11543;43.144;24.684;2023-04-09T11:52:38;99160.06;;;19.46;43.62
22753;BME280;11543;43.144;24.684;2023-04-09T11:55:06;99148.34;;;19.45;44.12
22753;BME280;11543;43.144;24.684;2023-04-09T11:57:53;99146.53;;;19.59;42.41
22753;BME280;11543;43.144;24.684;2023-04-09T12:00:19;99152.19;;;19.70;42.82
22753;BME280;11543;43.144;24.684;2023-04-09T12:02:47;99140.91;;;19.73;42.39
22753;BME280;11543;43.144;24.684;2023-04-09T12:05:25;99139.66;;;19.83;41.33
22753;BME280;11543;43.144;24.684;2023-04-09T12:08:00;99141.34;;;19.84;39.94
22753;BME280;11543;43.144;24.684;2023-04-09T12:10:27;99142.16;;;19.78;40.61
22753;BME280;11543;43.144;24.684;2023-04-09T12:12:53;99125.59;;;19.66;40.99
22753;BME280;11543;43.144;24.684;2023-04-09T12:15:23;99122.88;;;19.59;40.37
22753;BME280;11543;43.144;24.684;2023-04-09T12:17:58;99132.06;;;19.58;40.97
22753;BME280;11543;43.144;24.684;2023-04-09T12:22:51;99123.28;;;19.56;39.65
22753;BME280;11543;43.144;24.684;2023-04-09T12:25:16;99126.97;;;19.42;39.96
22753;BME280;11543;43.144;24.684;2023-04-09T12:27:42;99123.63;;;19.40;39.78
22753;BME280;11543;43.144;24.684;2023-04-09T12:30:08;99118.56;;;19.30;39.71
22753;BME280;11543;43.144;24.684;2023-04-09T12:32:35;99119.38;;;19.24;39.26
22753;BME280;11543;43.144;24.684;2023-04-09T12:35:03;99129.78;;;19.07;39.55
22753;BME280;11543;43.144;24.684;2023-04-09T12:37:28;99118.34;;;18.84;40.19
22753;BME280;11543;43.144;24.684;2023-04-09T12:39:54;99112.00;;;18.70;40.80
22753;BME280;11543;43.144;24.684;2023-04-09T12:42:20;99118.28;;;18.71;41.19
22753;BME280;11543;43.144;24.684;2023-04-09T12:44:49;99114.41;;;18.59;41.26
22753;BME280;11543;43.144;24.684;2023-04-09T12:47:14;99109.38;;;18.56;40.69
22753;BME280;11543;43.144;24.684;2023-04-09T12:49:40;99110.44;;;18.55;40.20
22753;BME280;11543;43.144;24.684;2023-04-09T12:52:09;99106.66;;;18.56;40.30
22753;BME280;11543;43.144;24.684;2023-04-09T12:54:35;99099.31;;;18.50;38.66
22753;BME280;11543;43.144;24.684;2023-04-09T12:57:00;99107.66;;;18.48;39.04
22753;BME280;11543;43.144;24.684;2023-04-09T12:59:26;99110.75;;;18.38;39.99
22753;BME280;11543;43.144;24.684;2023-04-09T13:01:52;99107.13;;;18.31;40.25
22753;BME280;11543;43.144;24.684;2023-04-09T13:04:17;99118.41;;;18.28;40.48
22753;BME280;11543;43.144;24.684;2023-04-09T13:06:43;99101.53;;;18.11;39.90
22753;BME280;11543;43.144;24.684;2023-04-09T13:09:08;99111.16;;;18.14;40.28
22753;BME280;11543;43.144;24.684;2023-04-09T13:11:34;99111.94;;;18.08;40.89
22753;BME280;11543;43.144;24.684;2023-04-09T13:14:01;99115.69;;;18.07;41.45
22753;BME280;11543;43.144;24.684;2023-04-09T13:16:26;99113.06;;;17.92;41.45
22753;BME280;11543;43.144;24.684;2023-04-09T13:18:52;99103.69;;;17.52;42.98
22753;BME280;11543;43.144;24.684;2023-04-09T13:21:23;99106.66;;;17.36;45.17
22753;BME280;11543;43.144;24.684;2023-04-09T13:23:49;99108.41;;;17.43;46.57
22753;BME280;11543;43.144;24.684;2023-04-09T13:26:14;99101.06;;;17.23;48.20
22753;BME280;11543;43.144;24.684;2023-04-09T13:28:40;99103.50;;;17.17;48.71
22753;BME280;11543;43.144;24.684;2023-04-09T13:31:06;99095.75;;;17.14;49.01
22753;BME280;11543;43.144;24.684;2023-04-09T13:36:23;99095.81;;;16.85;50.29
22753;BME280;11543;43.144;24.684;2023-04-09T13:42:13;99076.19;;;16.53;51.29
22753;BME280;11543;43.144;24.684;2023-04-09T13:45:00;99077.66;;;16.27;51.85
22753;BME280;11543;43.144;24.684;2023-04-09T13:47:53;99065.22;;;16.17;52.09
22753;BME280;11543;43.144;24.684;2023-04-09T13:50:40;99072.88;;;16.14;52.30
22753;BME280;11543;43.144;24.684;2023-04-09T13:53:06;99062.22;;;15.98;53.13
22753;BME280;11543;43.144;24.684;2023-04-09T13:55:40;99078.63;;;15.81;53.14
22753;BME280;11543;43.144;24.684;2023-04-09T13:58:05;99066.84;;;15.74;52.13
22753;BME280;11543;43.144;24.684;2023-04-09T14:00:31;99079.78;;;16.02;52.66
22753;BME280;11543;43.144;24.684;2023-04-09T14:02:57;99083.88;;;15.98;53.42
22753;BME280;11543;43.144;24.684;2023-04-09T14:05:23;99066.59;;;15.84;52.76
22753;BME280;11543;43.144;24.684;2023-04-09T14:07:49;99058.66;;;15.82;54.31
22753;BME280;11543;43.144;24.684;2023-04-09T14:10:14;99075.09;;;15.96;53.72
22753;BME280;11543;43.144;24.684;2023-04-09T14:12:41;99093.13;;;16.03;54.41
22753;BME280;11543;43.144;24.684;2023-04-09T14:15:06;99078.22;;;16.22;53.47
22753;BME280;11543;43.144;24.684;2023-04-09T14:17:32;99077.94;;;16.17;55.19
22753;BME280;11543;43.144;24.684;2023-04-09T14:19:58;99063.63;;;16.08;55.45
22753;BME280;11543;43.144;24.684;2023-04-09T14:22:29;99037.03;;;15.97;56.14
22753;BME280;11543;43.144;24.684;2023-04-09T14:24:57;99046.38;;;16.24;54.36
22753;BME280;11543;43.144;24.684;2023-04-09T14:27:23;99046.09;;;16.19;52.90
22753;BME280;11543;43.144;24.684;2023-04-09T14:29:49;99042.38;;;16.20;51.37
22753;BME280;11543;43.144;24.684;2023-04-09T14:32:15;99044.50;;;16.10;51.21
22753;BME280;11543;43.144;24.684;2023-04-09T14:34:41;99039.84;;;16.04;50.60
22753;BME280;11543;43.144;24.684;2023-04-09T14:37:09;99035.34;;;16.11;51.10
22753;BME280;11543;43.144;24.684;2023-04-09T14:39:35;99029.75;;;15.98;50.48
22753;BME280;11543;43.144;24.684;2023-04-09T14:42:06;99045.63;;;16.01;50.70
22753;BME280;11543;43.144;24.684;2023-04-09T14:44:34;99059.50;;;15.98;51.13
22753;BME280;11543;43.144;24.684;2023-04-09T14:47:00;99049.50;;;15.83;51.45
22753;BME280;11543;43.144;24.684;2023-04-09T14:49:25;99059.97;;;15.86;51.85
22753;BME280;11543;43.144;24.684;2023-04-09T14:51:51;99051.28;;;15.91;51.77
22753;BME280;11543;43.144;24.684;2023-04-09T14:54:20;99068.22;;;16.08;51.90
22753;BME280;11543;43.144;24.684;2023-04-09T14:56:45;99062.78;;;16.08;51.97
22753;BME280;11543;43.144;24.684;2023-04-09T14:59:11;99059.16;;;16.01;51.66
22753;BME280;11543;43.144;24.684;2023-04-09T15:01:40;99041.31;;;15.91;51.08
22753;BME280;11543;43.144;24.684;2023-04-09T15:04:05;99046.72;;;15.91;50.52
22753;BME280;11543;43.144;24.684;2023-04-09T15:06:34;99040.75;;;15.81;52.44
22753;BME280;11543;43.144;24.684;2023-04-09T15:09:00;99038.47;;;15.70;53.53
22753;BME280;11543;43.144;24.684;2023-04-09T15:11:25;99040.03;;;15.65;54.62
22753;BME280;11543;43.144;24.684;2023-04-09T15:13:53;99046.22;;;15.73;53.20
22753;BME280;11543;43.144;24.684;2023-04-09T15:16:25;99054.69;;;15.70;54.10
22753;BME280;11543;43.144;24.684;2023-04-09T15:18:52;99055.97;;;15.51;54.66